KCON/CON METAR and TAF weather

Enter ICAO airport designator
Station Type Date Time Source
KCON METAR 2022/06/30 13:51 UTC NOAA

KCON 301351Z AUTO 34011G16KT 10SM FEW039 21/10 A3019 RMK AO2 SLP222 T02110100


Station Type Date Time Source
KCON Decoded METAR 2022/06/30 13:51 UTC NOAA

Concord, Concord Municipal Airport, NH, United States (KCON) 43-11-43N 071-30-04W 103M
Jun 30, 2022 - 09:51 AM EDT / 2022.06.30 1351 UTC
Wind: from the NNW (340 degrees) at 13 MPH (11 KT) gusting to 18 MPH (16 KT):0
Visibility: 10 mile(s):0
Sky conditions: mostly clear
Temperature: 70.0 F (21.1 C)
Dew Point: 50.0 F (10.0 C)
Relative Humidity: 49%
Pressure (altimeter): 30.19 in. Hg (1022 hPa)
ob: KCON 301351Z AUTO 34011G16KT 10SM FEW039 21/10 A3019 RMK AO2 SLP222 T02110100
cycle: 14

Station Type Date Time Source
KCON TAF 2022/06/30 12:24 UTC NOAA

TAF KCON 301120Z 3012/0112 32009KT P6SM SCT250
FM010000 24004KT P6SM SCT250

Example: see airport list